sensor_id;sensor_type;location;lat;lon;timestamp;P1;durP1;ratioP1;P2;durP2;ratioP2
48487;SDS011;34289;48.572;13.378;2022-09-09T00:03:57;3.90;;;2.30;;
48487;SDS011;34289;48.572;13.378;2022-09-09T00:06:42;9.00;;;1.73;;
48487;SDS011;34289;48.572;13.378;2022-09-09T00:09:12;9.02;;;2.28;;
48487;SDS011;34289;48.572;13.378;2022-09-09T00:11:47;23.50;;;2.75;;
48487;SDS011;34289;48.572;13.378;2022-09-09T00:17:51;26.92;;;3.50;;
48487;SDS011;34289;48.572;13.378;2022-09-09T00:23:04;135.55;;;4.53;;
48487;SDS011;34289;48.572;13.378;2022-09-09T00:25:49;48.75;;;4.07;;
48487;SDS011;34289;48.572;13.378;2022-09-09T00:28:44;28.70;;;3.33;;
48487;SDS011;34289;48.572;13.378;2022-09-09T00:31:26;48.30;;;3.40;;
48487;SDS011;34289;48.572;13.378;2022-09-09T00:33:58;70.57;;;3.95;;
48487;SDS011;34289;48.572;13.378;2022-09-09T00:36:35;14.93;;;2.53;;
48487;SDS011;34289;48.572;13.378;2022-09-09T00:39:03;10.43;;;2.60;;
48487;SDS011;34289;48.572;13.378;2022-09-09T00:44:20;3.70;;;2.60;;
48487;SDS011;34289;48.572;13.378;2022-09-09T00:49:37;7.47;;;2.20;;
48487;SDS011;34289;48.572;13.378;2022-09-09T00:52:12;4.45;;;2.05;;
48487;SDS011;34289;48.572;13.378;2022-09-09T00:59:52;5.65;;;2.47;;
48487;SDS011;34289;48.572;13.378;2022-09-09T01:05:16;4.03;;;3.15;;
48487;SDS011;34289;48.572;13.378;2022-09-09T01:07:50;4.45;;;3.33;;
48487;SDS011;34289;48.572;13.378;2022-09-09T01:13:17;4.70;;;3.00;;
48487;SDS011;34289;48.572;13.378;2022-09-09T01:15:56;3.67;;;2.83;;
48487;SDS011;34289;48.572;13.378;2022-09-09T01:18:34;6.75;;;3.85;;
48487;SDS011;34289;48.572;13.378;2022-09-09T01:29:09;24.75;;;4.80;;
48487;SDS011;34289;48.572;13.378;2022-09-09T01:31:39;29.25;;;4.60;;
48487;SDS011;34289;48.572;13.378;2022-09-09T01:34:14;8.25;;;4.40;;
48487;SDS011;34289;48.572;13.378;2022-09-09T01:39:37;22.65;;;5.30;;
48487;SDS011;34289;48.572;13.378;2022-09-09T01:42:07;14.90;;;5.40;;
48487;SDS011;34289;48.572;13.378;2022-09-09T01:44:35;22.55;;;4.65;;
48487;SDS011;34289;48.572;13.378;2022-09-09T01:47:02;19.77;;;4.93;;
48487;SDS011;34289;48.572;13.378;2022-09-09T01:49:28;98.35;;;6.80;;
48487;SDS011;34289;48.572;13.378;2022-09-09T01:51:54;62.25;;;6.15;;
48487;SDS011;34289;48.572;13.378;2022-09-09T01:54:21;26.58;;;6.10;;
48487;SDS011;34289;48.572;13.378;2022-09-09T01:56:58;155.30;;;7.70;;
48487;SDS011;34289;48.572;13.378;2022-09-09T02:04:45;34.85;;;6.68;;
48487;SDS011;34289;48.572;13.378;2022-09-09T02:09:59;118.97;;;8.35;;
48487;SDS011;34289;48.572;13.378;2022-09-09T02:12:30;144.63;;;8.32;;
48487;SDS011;34289;48.572;13.378;2022-09-09T02:14:59;209.27;;;9.93;;
48487;SDS011;34289;48.572;13.378;2022-09-09T02:17:33;30.92;;;7.28;;
48487;SDS011;34289;48.572;13.378;2022-09-09T02:20:21;29.88;;;7.38;;
48487;SDS011;34289;48.572;13.378;2022-09-09T02:22:49;45.53;;;7.32;;
48487;SDS011;34289;48.572;13.378;2022-09-09T02:25:17;44.08;;;7.72;;
48487;SDS011;34289;48.572;13.378;2022-09-09T02:27:47;185.73;;;10.65;;
48487;SDS011;34289;48.572;13.378;2022-09-09T02:30:15;62.72;;;10.15;;
48487;SDS011;34289;48.572;13.378;2022-09-09T02:32:41;181.93;;;10.68;;
48487;SDS011;34289;48.572;13.378;2022-09-09T02:35:10;82.05;;;9.25;;
48487;SDS011;34289;48.572;13.378;2022-09-09T02:37:39;131.57;;;11.07;;
48487;SDS011;34289;48.572;13.378;2022-09-09T02:40:07;128.32;;;10.82;;
48487;SDS011;34289;48.572;13.378;2022-09-09T02:42:42;76.38;;;10.32;;
48487;SDS011;34289;48.572;13.378;2022-09-09T02:45:10;162.13;;;12.20;;
48487;SDS011;34289;48.572;13.378;2022-09-09T02:47:38;485.67;;;18.17;;
48487;SDS011;34289;48.572;13.378;2022-09-09T02:50:16;354.10;;;14.88;;
48487;SDS011;34289;48.572;13.378;2022-09-09T02:55:48;237.50;;;13.60;;
48487;SDS011;34289;48.572;13.378;2022-09-09T02:58:16;148.13;;;12.68;;
48487;SDS011;34289;48.572;13.378;2022-09-09T03:00:45;73.40;;;10.95;;
48487;SDS011;34289;48.572;13.378;2022-09-09T03:03:12;143.25;;;12.35;;
48487;SDS011;34289;48.572;13.378;2022-09-09T03:05:38;250.32;;;13.13;;
48487;SDS011;34289;48.572;13.378;2022-09-09T03:08:04;346.65;;;15.02;;
48487;SDS011;34289;48.572;13.378;2022-09-09T03:10:30;160.60;;;12.18;;
48487;SDS011;34289;48.572;13.378;2022-09-09T03:12:57;227.50;;;12.40;;
48487;SDS011;34289;48.572;13.378;2022-09-09T03:15:22;318.90;;;16.23;;
48487;SDS011;34289;48.572;13.378;2022-09-09T03:17:48;140.70;;;11.73;;
48487;SDS011;34289;48.572;13.378;2022-09-09T03:20:14;105.60;;;11.65;;
48487;SDS011;34289;48.572;13.378;2022-09-09T03:22:39;96.05;;;11.90;;
48487;SDS011;34289;48.572;13.378;2022-09-09T03:25:05;129.40;;;12.00;;
48487;SDS011;34289;48.572;13.378;2022-09-09T03:27:31;181.95;;;14.50;;
48487;SDS011;34289;48.572;13.378;2022-09-09T03:29:58;144.45;;;12.88;;
48487;SDS011;34289;48.572;13.378;2022-09-09T03:32:23;51.58;;;10.75;;
48487;SDS011;34289;48.572;13.378;2022-09-09T03:34:50;47.20;;;10.55;;
48487;SDS011;34289;48.572;13.378;2022-09-09T03:37:17;58.40;;;10.82;;
48487;SDS011;34289;48.572;13.378;2022-09-09T03:39:43;19.27;;;8.90;;
48487;SDS011;34289;48.572;13.378;2022-09-09T03:42:11;18.42;;;8.68;;
48487;SDS011;34289;48.572;13.378;2022-09-09T03:44:39;23.08;;;7.50;;
48487;SDS011;34289;48.572;13.378;2022-09-09T03:47:05;17.70;;;8.65;;
48487;SDS011;34289;48.572;13.378;2022-09-09T03:49:31;31.85;;;8.68;;
48487;SDS011;34289;48.572;13.378;2022-09-09T03:51:57;25.80;;;8.65;;
48487;SDS011;34289;48.572;13.378;2022-09-09T03:54:24;9.15;;;7.18;;
48487;SDS011;34289;48.572;13.378;2022-09-09T03:56:50;11.23;;;7.63;;
48487;SDS011;34289;48.572;13.378;2022-09-09T03:59:16;10.23;;;7.75;;
48487;SDS011;34289;48.572;13.378;2022-09-09T04:01:42;17.50;;;8.35;;
48487;SDS011;34289;48.572;13.378;2022-09-09T04:04:07;34.88;;;10.45;;
48487;SDS011;34289;48.572;13.378;2022-09-09T04:06:33;54.80;;;10.27;;
48487;SDS011;34289;48.572;13.378;2022-09-09T04:08:59;25.50;;;10.23;;
48487;SDS011;34289;48.572;13.378;2022-09-09T04:11:27;15.48;;;11.60;;
48487;SDS011;34289;48.572;13.378;2022-09-09T04:13:53;18.00;;;10.75;;
48487;SDS011;34289;48.572;13.378;2022-09-09T04:16:18;14.90;;;10.65;;
48487;SDS011;34289;48.572;13.378;2022-09-09T04:18:45;20.55;;;10.77;;
48487;SDS011;34289;48.572;13.378;2022-09-09T04:21:11;18.25;;;10.20;;
48487;SDS011;34289;48.572;13.378;2022-09-09T04:23:37;16.35;;;10.85;;
48487;SDS011;34289;48.572;13.378;2022-09-09T04:26:04;52.25;;;12.60;;
48487;SDS011;34289;48.572;13.378;2022-09-09T04:28:31;21.05;;;11.55;;
48487;SDS011;34289;48.572;13.378;2022-09-09T04:31:03;28.67;;;12.98;;
48487;SDS011;34289;48.572;13.378;2022-09-09T04:33:34;236.85;;;15.98;;
48487;SDS011;34289;48.572;13.378;2022-09-09T04:35:59;470.00;;;25.75;;
48487;SDS011;34289;48.572;13.378;2022-09-09T04:38:25;166.90;;;15.52;;
48487;SDS011;34289;48.572;13.378;2022-09-09T04:40:51;61.25;;;15.85;;
48487;SDS011;34289;48.572;13.378;2022-09-09T04:43:18;57.75;;;17.20;;
48487;SDS011;34289;48.572;13.378;2022-09-09T04:45:49;52.42;;;16.10;;
48487;SDS011;34289;48.572;13.378;2022-09-09T04:48:19;36.35;;;15.85;;
48487;SDS011;34289;48.572;13.378;2022-09-09T04:50:56;26.77;;;15.88;;
48487;SDS011;34289;48.572;13.378;2022-09-09T04:53:26;23.35;;;13.73;;
48487;SDS011;34289;48.572;13.378;2022-09-09T04:55:52;37.20;;;13.00;;
48487;SDS011;34289;48.572;13.378;2022-09-09T04:58:26;25.10;;;11.35;;
48487;SDS011;34289;48.572;13.378;2022-09-09T05:00:52;18.30;;;10.65;;
48487;SDS011;34289;48.572;13.378;2022-09-09T05:03:17;64.63;;;12.07;;
48487;SDS011;34289;48.572;13.378;2022-09-09T05:05:44;73.15;;;12.13;;
48487;SDS011;34289;48.572;13.378;2022-09-09T05:08:09;23.13;;;11.75;;
48487;SDS011;34289;48.572;13.378;2022-09-09T05:10:36;24.40;;;12.30;;
48487;SDS011;34289;48.572;13.378;2022-09-09T05:13:03;19.90;;;12.32;;
48487;SDS011;34289;48.572;13.378;2022-09-09T05:15:29;13.73;;;11.13;;
48487;SDS011;34289;48.572;13.378;2022-09-09T05:17:57;14.05;;;10.65;;
48487;SDS011;34289;48.572;13.378;2022-09-09T05:20:23;39.75;;;11.95;;
48487;SDS011;34289;48.572;13.378;2022-09-09T05:22:52;17.40;;;11.02;;
48487;SDS011;34289;48.572;13.378;2022-09-09T05:25:21;12.60;;;10.43;;
48487;SDS011;34289;48.572;13.378;2022-09-09T05:27:49;13.55;;;10.80;;
48487;SDS011;34289;48.572;13.378;2022-09-09T05:30:15;16.92;;;10.13;;
48487;SDS011;34289;48.572;13.378;2022-09-09T05:32:41;23.83;;;10.95;;
48487;SDS011;34289;48.572;13.378;2022-09-09T05:35:08;25.13;;;10.80;;
48487;SDS011;34289;48.572;13.378;2022-09-09T05:37:33;17.67;;;10.15;;
48487;SDS011;34289;48.572;13.378;2022-09-09T05:40:00;26.38;;;11.00;;
48487;SDS011;34289;48.572;13.378;2022-09-09T05:42:29;37.15;;;11.10;;
48487;SDS011;34289;48.572;13.378;2022-09-09T05:44:56;152.88;;;13.18;;
48487;SDS011;34289;48.572;13.378;2022-09-09T05:47:23;83.03;;;13.13;;
48487;SDS011;34289;48.572;13.378;2022-09-09T05:49:48;110.15;;;14.32;;
48487;SDS011;34289;48.572;13.378;2022-09-09T05:52:14;55.75;;;13.52;;
48487;SDS011;34289;48.572;13.378;2022-09-09T05:54:40;85.78;;;14.43;;
48487;SDS011;34289;48.572;13.378;2022-09-09T05:57:06;162.02;;;17.23;;
48487;SDS011;34289;48.572;13.378;2022-09-09T05:59:32;37.00;;;15.02;;
48487;SDS011;34289;48.572;13.378;2022-09-09T06:01:57;22.85;;;15.48;;
48487;SDS011;34289;48.572;13.378;2022-09-09T06:04:24;37.90;;;16.35;;
48487;SDS011;34289;48.572;13.378;2022-09-09T06:06:49;28.73;;;16.15;;
48487;SDS011;34289;48.572;13.378;2022-09-09T06:09:15;22.00;;;16.88;;
48487;SDS011;34289;48.572;13.378;2022-09-09T06:11:42;23.63;;;16.85;;
48487;SDS011;34289;48.572;13.378;2022-09-09T06:14:08;23.38;;;17.45;;
48487;SDS011;34289;48.572;13.378;2022-09-09T06:16:34;22.83;;;17.67;;
48487;SDS011;34289;48.572;13.378;2022-09-09T06:19:02;25.33;;;17.42;;
48487;SDS011;34289;48.572;13.378;2022-09-09T06:21:29;21.98;;;15.85;;
48487;SDS011;34289;48.572;13.378;2022-09-09T06:23:57;22.67;;;17.23;;
48487;SDS011;34289;48.572;13.378;2022-09-09T06:26:24;22.25;;;17.50;;
48487;SDS011;34289;48.572;13.378;2022-09-09T06:28:52;20.58;;;15.77;;
48487;SDS011;34289;48.572;13.378;2022-09-09T06:31:21;19.70;;;16.00;;
48487;SDS011;34289;48.572;13.378;2022-09-09T06:33:48;19.88;;;16.13;;
48487;SDS011;34289;48.572;13.378;2022-09-09T06:36:22;17.02;;;13.15;;
48487;SDS011;34289;48.572;13.378;2022-09-09T06:38:49;18.98;;;14.05;;
48487;SDS011;34289;48.572;13.378;2022-09-09T06:41:15;16.83;;;13.45;;
48487;SDS011;34289;48.572;13.378;2022-09-09T06:43:43;17.88;;;14.90;;
48487;SDS011;34289;48.572;13.378;2022-09-09T06:46:13;21.35;;;13.57;;
48487;SDS011;34289;48.572;13.378;2022-09-09T06:48:43;17.23;;;13.20;;
48487;SDS011;34289;48.572;13.378;2022-09-09T06:51:11;18.35;;;14.38;;
48487;SDS011;34289;48.572;13.378;2022-09-09T06:53:38;15.80;;;13.05;;
48487;SDS011;34289;48.572;13.378;2022-09-09T06:58:51;19.48;;;13.70;;
48487;SDS011;34289;48.572;13.378;2022-09-09T07:01:18;17.48;;;13.38;;
48487;SDS011;34289;48.572;13.378;2022-09-09T07:03:49;15.65;;;12.15;;
48487;SDS011;34289;48.572;13.378;2022-09-09T07:06:23;14.38;;;12.57;;
48487;SDS011;34289;48.572;13.378;2022-09-09T07:11:18;15.00;;;12.52;;
48487;SDS011;34289;48.572;13.378;2022-09-09T07:13:45;14.45;;;12.32;;
48487;SDS011;34289;48.572;13.378;2022-09-09T07:16:12;15.02;;;12.23;;
48487;SDS011;34289;48.572;13.378;2022-09-09T07:18:40;19.75;;;13.68;;
48487;SDS011;34289;48.572;13.378;2022-09-09T07:21:07;16.13;;;12.98;;
48487;SDS011;34289;48.572;13.378;2022-09-09T07:23:34;14.65;;;12.82;;
48487;SDS011;34289;48.572;13.378;2022-09-09T07:26:07;16.33;;;13.95;;
48487;SDS011;34289;48.572;13.378;2022-09-09T07:28:34;17.88;;;13.52;;
48487;SDS011;34289;48.572;13.378;2022-09-09T07:31:00;17.73;;;13.60;;
48487;SDS011;34289;48.572;13.378;2022-09-09T07:33:29;18.92;;;14.68;;
48487;SDS011;34289;48.572;13.378;2022-09-09T07:36:13;15.73;;;13.43;;
48487;SDS011;34289;48.572;13.378;2022-09-09T07:38:42;16.52;;;12.68;;
48487;SDS011;34289;48.572;13.378;2022-09-09T07:41:11;15.48;;;12.20;;
48487;SDS011;34289;48.572;13.378;2022-09-09T07:43:39;13.65;;;11.77;;
48487;SDS011;34289;48.572;13.378;2022-09-09T07:46:10;13.65;;;11.05;;
48487;SDS011;34289;48.572;13.378;2022-09-09T07:48:38;11.88;;;10.68;;
48487;SDS011;34289;48.572;13.378;2022-09-09T07:51:09;13.20;;;11.80;;
48487;SDS011;34289;48.572;13.378;2022-09-09T07:53:37;10.73;;;9.60;;
48487;SDS011;34289;48.572;13.378;2022-09-09T07:56:08;11.98;;;10.70;;
48487;SDS011;34289;48.572;13.378;2022-09-09T07:58:36;13.25;;;9.80;;
48487;SDS011;34289;48.572;13.378;2022-09-09T08:01:13;17.45;;;13.18;;
48487;SDS011;34289;48.572;13.378;2022-09-09T08:03:56;15.00;;;12.32;;
48487;SDS011;34289;48.572;13.378;2022-09-09T08:06:24;11.70;;;9.68;;
48487;SDS011;34289;48.572;13.378;2022-09-09T08:08:52;10.68;;;9.55;;
48487;SDS011;34289;48.572;13.378;2022-09-09T08:11:19;12.95;;;11.10;;
48487;SDS011;34289;48.572;13.378;2022-09-09T08:13:46;9.70;;;8.70;;
48487;SDS011;34289;48.572;13.378;2022-09-09T08:16:14;9.75;;;7.82;;
48487;SDS011;34289;48.572;13.378;2022-09-09T08:18:41;9.70;;;8.30;;
48487;SDS011;34289;48.572;13.378;2022-09-09T08:21:12;12.73;;;9.20;;
48487;SDS011;34289;48.572;13.378;2022-09-09T08:23:43;9.70;;;8.20;;
48487;SDS011;34289;48.572;13.378;2022-09-09T08:26:11;11.27;;;8.30;;
48487;SDS011;34289;48.572;13.378;2022-09-09T08:28:40;8.70;;;7.38;;
48487;SDS011;34289;48.572;13.378;2022-09-09T08:31:06;12.52;;;7.90;;
48487;SDS011;34289;48.572;13.378;2022-09-09T08:33:34;8.60;;;6.75;;
48487;SDS011;34289;48.572;13.378;2022-09-09T08:36:02;10.50;;;9.23;;
48487;SDS011;34289;48.572;13.378;2022-09-09T08:38:28;12.82;;;8.23;;
48487;SDS011;34289;48.572;13.378;2022-09-09T08:40:53;10.15;;;6.72;;
48487;SDS011;34289;48.572;13.378;2022-09-09T08:43:29;8.65;;;7.72;;
48487;SDS011;34289;48.572;13.378;2022-09-09T08:46:03;9.23;;;7.75;;
48487;SDS011;34289;48.572;13.378;2022-09-09T08:51:36;10.40;;;7.18;;
48487;SDS011;34289;48.572;13.378;2022-09-09T08:54:02;11.20;;;7.93;;
48487;SDS011;34289;48.572;13.378;2022-09-09T08:56:30;8.60;;;7.30;;
48487;SDS011;34289;48.572;13.378;2022-09-09T08:58:57;12.35;;;7.40;;
48487;SDS011;34289;48.572;13.378;2022-09-09T09:11:58;15.75;;;8.88;;
48487;SDS011;34289;48.572;13.378;2022-09-09T09:14:27;8.88;;;6.60;;
48487;SDS011;34289;48.572;13.378;2022-09-09T09:19:29;8.57;;;7.43;;
48487;SDS011;34289;48.572;13.378;2022-09-09T09:30:40;9.85;;;8.07;;
48487;SDS011;34289;48.572;13.378;2022-09-09T09:35:48;7.20;;;6.03;;
48487;SDS011;34289;48.572;13.378;2022-09-09T09:40:51;7.18;;;6.38;;
48487;SDS011;34289;48.572;13.378;2022-09-09T09:43:36;7.13;;;6.40;;
48487;SDS011;34289;48.572;13.378;2022-09-09T09:46:05;7.72;;;6.97;;
48487;SDS011;34289;48.572;13.378;2022-09-09T09:48:43;6.88;;;5.88;;
48487;SDS011;34289;48.572;13.378;2022-09-09T09:51:10;10.07;;;6.97;;
48487;SDS011;34289;48.572;13.378;2022-09-09T09:53:41;8.77;;;6.65;;
48487;SDS011;34289;48.572;13.378;2022-09-09T10:01:21;7.55;;;5.65;;
48487;SDS011;34289;48.572;13.378;2022-09-09T10:03:55;7.05;;;5.82;;
48487;SDS011;34289;48.572;13.378;2022-09-09T10:06:34;5.60;;;5.10;;
48487;SDS011;34289;48.572;13.378;2022-09-09T10:09:03;8.45;;;5.15;;
48487;SDS011;34289;48.572;13.378;2022-09-09T10:14:20;10.05;;;6.22;;
48487;SDS011;34289;48.572;13.378;2022-09-09T10:19:34;7.47;;;4.53;;
48487;SDS011;34289;48.572;13.378;2022-09-09T10:24:53;8.07;;;5.03;;
48487;SDS011;34289;48.572;13.378;2022-09-09T10:27:47;4.25;;;3.85;;
48487;SDS011;34289;48.572;13.378;2022-09-09T10:31:10;5.85;;;5.15;;
48487;SDS011;34289;48.572;13.378;2022-09-09T10:33:22;6.78;;;4.38;;
48487;SDS011;34289;48.572;13.378;2022-09-09T10:38:30;5.05;;;4.25;;
48487;SDS011;34289;48.572;13.378;2022-09-09T10:41:09;9.05;;;4.47;;
48487;SDS011;34289;48.572;13.378;2022-09-09T10:51:56;5.97;;;5.05;;
48487;SDS011;34289;48.572;13.378;2022-09-09T10:57:21;7.65;;;4.65;;
48487;SDS011;34289;48.572;13.378;2022-09-09T11:00:03;5.30;;;4.80;;
48487;SDS011;34289;48.572;13.378;2022-09-09T11:02:31;8.65;;;5.25;;
48487;SDS011;34289;48.572;13.378;2022-09-09T11:05:04;9.30;;;5.70;;
48487;SDS011;34289;48.572;13.378;2022-09-09T11:16:19;10.25;;;5.68;;
48487;SDS011;34289;48.572;13.378;2022-09-09T11:18:50;7.05;;;5.45;;
48487;SDS011;34289;48.572;13.378;2022-09-09T11:21:27;10.82;;;5.63;;
48487;SDS011;34289;48.572;13.378;2022-09-09T11:24:01;9.93;;;6.43;;
48487;SDS011;34289;48.572;13.378;2022-09-09T11:40:00;10.95;;;6.28;;
48487;SDS011;34289;48.572;13.378;2022-09-09T11:42:30;11.48;;;6.45;;
48487;SDS011;34289;48.572;13.378;2022-09-09T11:44:55;20.00;;;6.93;;
48487;SDS011;34289;48.572;13.378;2022-09-09T11:47:23;9.05;;;5.65;;
48487;SDS011;34289;48.572;13.378;2022-09-09T11:49:55;9.15;;;5.30;;
48487;SDS011;34289;48.572;13.378;2022-09-09T11:52:38;7.60;;;4.82;;
48487;SDS011;34289;48.572;13.378;2022-09-09T12:03:05;8.23;;;5.07;;
48487;SDS011;34289;48.572;13.378;2022-09-09T12:05:51;6.68;;;4.57;;
48487;SDS011;34289;48.572;13.378;2022-09-09T12:08:19;10.32;;;5.68;;
48487;SDS011;34289;48.572;13.378;2022-09-09T12:10:56;9.90;;;5.50;;
48487;SDS011;34289;48.572;13.378;2022-09-09T12:13:24;12.68;;;5.75;;
48487;SDS011;34289;48.572;13.378;2022-09-09T12:15:52;9.82;;;4.88;;
48487;SDS011;34289;48.572;13.378;2022-09-09T12:18:23;8.63;;;5.45;;
48487;SDS011;34289;48.572;13.378;2022-09-09T12:20:54;10.73;;;6.15;;
48487;SDS011;34289;48.572;13.378;2022-09-09T12:23:48;10.05;;;5.65;;
48487;SDS011;34289;48.572;13.378;2022-09-09T12:29:08;8.95;;;4.95;;
48487;SDS011;34289;48.572;13.378;2022-09-09T12:31:51;15.82;;;6.78;;
48487;SDS011;34289;48.572;13.378;2022-09-09T12:37:37;8.60;;;5.78;;
48487;SDS011;34289;48.572;13.378;2022-09-09T12:42:50;6.90;;;5.00;;
48487;SDS011;34289;48.572;13.378;2022-09-09T12:45:23;8.98;;;5.35;;
48487;SDS011;34289;48.572;13.378;2022-09-09T12:47:55;9.38;;;4.43;;
48487;SDS011;34289;48.572;13.378;2022-09-09T12:50:25;8.20;;;4.90;;
48487;SDS011;34289;48.572;13.378;2022-09-09T12:52:52;8.30;;;4.97;;
48487;SDS011;34289;48.572;13.378;2022-09-09T12:55:21;6.03;;;4.43;;
48487;SDS011;34289;48.572;13.378;2022-09-09T12:57:50;7.18;;;4.78;;
48487;SDS011;34289;48.572;13.378;2022-09-09T13:00:19;7.00;;;4.25;;
48487;SDS011;34289;48.572;13.378;2022-09-09T13:02:54;13.32;;;4.95;;
48487;SDS011;34289;48.572;13.378;2022-09-09T13:05:26;5.40;;;4.20;;
48487;SDS011;34289;48.572;13.378;2022-09-09T13:08:03;6.32;;;4.78;;
48487;SDS011;34289;48.572;13.378;2022-09-09T13:10:31;5.72;;;4.47;;
48487;SDS011;34289;48.572;13.378;2022-09-09T13:13:03;7.35;;;4.60;;
48487;SDS011;34289;48.572;13.378;2022-09-09T13:15:30;11.18;;;5.30;;
48487;SDS011;34289;48.572;13.378;2022-09-09T13:17:57;6.88;;;4.53;;
48487;SDS011;34289;48.572;13.378;2022-09-09T13:20:26;7.15;;;4.78;;
48487;SDS011;34289;48.572;13.378;2022-09-09T13:22:53;5.60;;;4.38;;
48487;SDS011;34289;48.572;13.378;2022-09-09T13:25:21;5.72;;;4.38;;
48487;SDS011;34289;48.572;13.378;2022-09-09T13:27:55;6.00;;;4.40;;
48487;SDS011;34289;48.572;13.378;2022-09-09T13:30:22;10.63;;;6.80;;
48487;SDS011;34289;48.572;13.378;2022-09-09T13:35:46;8.63;;;5.60;;
48487;SDS011;34289;48.572;13.378;2022-09-09T13:38:13;10.15;;;5.25;;
48487;SDS011;34289;48.572;13.378;2022-09-09T13:40:40;6.15;;;4.40;;
48487;SDS011;34289;48.572;13.378;2022-09-09T13:43:20;9.05;;;5.15;;
48487;SDS011;34289;48.572;13.378;2022-09-09T13:45:58;6.28;;;4.15;;
48487;SDS011;34289;48.572;13.378;2022-09-09T13:48:26;7.22;;;4.22;;
48487;SDS011;34289;48.572;13.378;2022-09-09T13:50:59;7.72;;;6.15;;
48487;SDS011;34289;48.572;13.378;2022-09-09T13:53:29;10.73;;;6.00;;
48487;SDS011;34289;48.572;13.378;2022-09-09T13:55:55;6.53;;;4.35;;
48487;SDS011;34289;48.572;13.378;2022-09-09T13:58:22;7.18;;;4.15;;
48487;SDS011;34289;48.572;13.378;2022-09-09T14:00:49;7.15;;;5.00;;
48487;SDS011;34289;48.572;13.378;2022-09-09T14:03:15;5.75;;;4.35;;
48487;SDS011;34289;48.572;13.378;2022-09-09T14:05:41;5.75;;;4.55;;
48487;SDS011;34289;48.572;13.378;2022-09-09T14:08:09;5.20;;;4.50;;
48487;SDS011;34289;48.572;13.378;2022-09-09T14:10:41;4.25;;;3.60;;
48487;SDS011;34289;48.572;13.378;2022-09-09T14:13:09;7.18;;;3.42;;
48487;SDS011;34289;48.572;13.378;2022-09-09T14:15:36;6.00;;;3.72;;
48487;SDS011;34289;48.572;13.378;2022-09-09T14:18:02;6.63;;;3.50;;
48487;SDS011;34289;48.572;13.378;2022-09-09T14:20:27;5.90;;;3.90;;
48487;SDS011;34289;48.572;13.378;2022-09-09T14:22:53;7.63;;;4.05;;
48487;SDS011;34289;48.572;13.378;2022-09-09T14:25:19;3.88;;;3.53;;
48487;SDS011;34289;48.572;13.378;2022-09-09T14:27:44;9.43;;;5.03;;
48487;SDS011;34289;48.572;13.378;2022-09-09T14:30:11;5.03;;;3.42;;
48487;SDS011;34289;48.572;13.378;2022-09-09T14:32:37;6.72;;;4.20;;
48487;SDS011;34289;48.572;13.378;2022-09-09T14:35:03;4.00;;;3.60;;
48487;SDS011;34289;48.572;13.378;2022-09-09T14:37:29;9.57;;;4.18;;
48487;SDS011;34289;48.572;13.378;2022-09-09T14:39:56;3.95;;;3.08;;
48487;SDS011;34289;48.572;13.378;2022-09-09T14:42:22;6.15;;;3.47;;
48487;SDS011;34289;48.572;13.378;2022-09-09T14:44:48;4.38;;;2.80;;
48487;SDS011;34289;48.572;13.378;2022-09-09T14:47:14;5.80;;;2.88;;
48487;SDS011;34289;48.572;13.378;2022-09-09T14:49:39;3.67;;;2.97;;
48487;SDS011;34289;48.572;13.378;2022-09-09T14:52:05;6.35;;;4.35;;
48487;SDS011;34289;48.572;13.378;2022-09-09T14:54:31;4.70;;;3.28;;
48487;SDS011;34289;48.572;13.378;2022-09-09T14:56:57;6.05;;;3.55;;
48487;SDS011;34289;48.572;13.378;2022-09-09T14:59:23;4.03;;;3.35;;
48487;SDS011;34289;48.572;13.378;2022-09-09T15:01:49;5.43;;;4.10;;
48487;SDS011;34289;48.572;13.378;2022-09-09T15:04:15;5.03;;;3.38;;
48487;SDS011;34289;48.572;13.378;2022-09-09T15:06:41;6.80;;;4.28;;
48487;SDS011;34289;48.572;13.378;2022-09-09T15:09:09;4.13;;;3.67;;
48487;SDS011;34289;48.572;13.378;2022-09-09T15:11:36;4.95;;;4.30;;
48487;SDS011;34289;48.572;13.378;2022-09-09T15:14:03;6.75;;;4.90;;
48487;SDS011;34289;48.572;13.378;2022-09-09T15:16:29;6.35;;;4.60;;
48487;SDS011;34289;48.572;13.378;2022-09-09T15:18:57;7.07;;;5.20;;
48487;SDS011;34289;48.572;13.378;2022-09-09T15:21:25;7.85;;;5.13;;
48487;SDS011;34289;48.572;13.378;2022-09-09T15:23:53;6.47;;;4.82;;
48487;SDS011;34289;48.572;13.378;2022-09-09T15:26:19;6.45;;;4.60;;
48487;SDS011;34289;48.572;13.378;2022-09-09T15:28:46;5.38;;;4.80;;
48487;SDS011;34289;48.572;13.378;2022-09-09T15:31:22;6.07;;;5.13;;
48487;SDS011;34289;48.572;13.378;2022-09-09T15:33:50;7.97;;;5.40;;
48487;SDS011;34289;48.572;13.378;2022-09-09T15:36:26;8.05;;;6.10;;
48487;SDS011;34289;48.572;13.378;2022-09-09T15:38:53;7.75;;;6.90;;
48487;SDS011;34289;48.572;13.378;2022-09-09T15:41:19;9.95;;;6.75;;
48487;SDS011;34289;48.572;13.378;2022-09-09T15:43:47;9.15;;;7.85;;
48487;SDS011;34289;48.572;13.378;2022-09-09T15:46:22;9.23;;;7.47;;
48487;SDS011;34289;48.572;13.378;2022-09-09T15:48:49;8.25;;;7.40;;
48487;SDS011;34289;48.572;13.378;2022-09-09T15:51:15;9.48;;;7.65;;
48487;SDS011;34289;48.572;13.378;2022-09-09T15:53:41;9.25;;;8.32;;
48487;SDS011;34289;48.572;13.378;2022-09-09T15:56:08;9.25;;;8.38;;
48487;SDS011;34289;48.572;13.378;2022-09-09T15:58:34;10.73;;;8.35;;
48487;SDS011;34289;48.572;13.378;2022-09-09T16:01:03;9.80;;;8.55;;
48487;SDS011;34289;48.572;13.378;2022-09-09T16:03:40;8.90;;;8.18;;
48487;SDS011;34289;48.572;13.378;2022-09-09T16:06:12;10.63;;;9.10;;
48487;SDS011;34289;48.572;13.378;2022-09-09T16:08:40;10.15;;;9.15;;
48487;SDS011;34289;48.572;13.378;2022-09-09T16:11:18;9.52;;;8.65;;
48487;SDS011;34289;48.572;13.378;2022-09-09T16:13:45;10.25;;;8.40;;
48487;SDS011;34289;48.572;13.378;2022-09-09T16:16:13;9.50;;;8.50;;
48487;SDS011;34289;48.572;13.378;2022-09-09T16:18:45;8.77;;;7.82;;
48487;SDS011;34289;48.572;13.378;2022-09-09T16:21:14;9.05;;;7.13;;
48487;SDS011;34289;48.572;13.378;2022-09-09T16:23:51;7.80;;;7.00;;
48487;SDS011;34289;48.572;13.378;2022-09-09T16:26:18;7.47;;;6.78;;
48487;SDS011;34289;48.572;13.378;2022-09-09T16:28:44;6.63;;;6.03;;
48487;SDS011;34289;48.572;13.378;2022-09-09T16:31:14;10.07;;;6.35;;
48487;SDS011;34289;48.572;13.378;2022-09-09T16:33:44;7.45;;;6.20;;
48487;SDS011;34289;48.572;13.378;2022-09-09T16:36:16;7.07;;;6.07;;
48487;SDS011;34289;48.572;13.378;2022-09-09T16:38:43;7.35;;;6.53;;
48487;SDS011;34289;48.572;13.378;2022-09-09T16:41:10;9.82;;;7.13;;
48487;SDS011;34289;48.572;13.378;2022-09-09T16:43:38;7.15;;;6.45;;
48487;SDS011;34289;48.572;13.378;2022-09-09T16:46:15;8.27;;;6.72;;
48487;SDS011;34289;48.572;13.378;2022-09-09T16:48:43;6.85;;;6.07;;
48487;SDS011;34289;48.572;13.378;2022-09-09T16:51:28;8.95;;;7.05;;
48487;SDS011;34289;48.572;13.378;2022-09-09T16:53:57;9.68;;;7.82;;
48487;SDS011;34289;48.572;13.378;2022-09-09T16:56:25;7.88;;;7.05;;
48487;SDS011;34289;48.572;13.378;2022-09-09T16:58:53;12.85;;;6.93;;
48487;SDS011;34289;48.572;13.378;2022-09-09T17:01:20;7.50;;;6.80;;
48487;SDS011;34289;48.572;13.378;2022-09-09T17:03:47;9.48;;;6.70;;
48487;SDS011;34289;48.572;13.378;2022-09-09T17:06:16;8.00;;;7.22;;